Terminal Aerodrome Forecast
Issued by NWS

Home | Current Version | Previous Version | Text Only | Print | Product List | Glossary On
Versions: 1 2 3 4 5 6 7 8 9 10 11 12
844
FTUS46 KMTR 300527
TAFOAK
TAF
KOAK 300527Z 3006/3112 28012KT P6SM SCT010 BKN150
      TEMPO 3006/3008 BKN010 OVC150
     FM300800 26007KT 6SM -DZ BR BKN006 OVC010
     FM301500 29006KT P6SM SCT012 SCT150
     FM301800 29012KT P6SM SCT150
     FM302200 29020G30KT P6SM FEW030 SCT250
     FM310500 29015G25KT P6SM SCT030 SCT250=

USA.gov is the U.S. government's official web portal to all federal, state and local government web resources and services.